Time;durP1;ratioP1;P1;durP2;ratioP2;P2;SDS_P1;SDS_P2;PMS_P1;PMS_P2;Temp;Humidity;BMP_temperature;BMP_pressure;BME280_temperature;BME280_humidity;BME280_pressure;Samples;Min_cycle;Max_cycle;Signal;HPM_P1;HPM_P2
2023/10/20 00:01:15;;;;;;;3.50;3.17;;;;;;;13.24;92.62;92926.44;4311965;33;20228;-64
2023/10/20 00:03:41;;;;;;;6.70;3.63;;;;;;;13.19;92.75;92916.88;4293220;33;20175;-64
2023/10/20 00:06:07;;;;;;;4.40;4.10;;;;;;;13.27;92.37;92913.16;4301897;33;20262;-64
2023/10/20 00:08:32;;;;;;;3.23;3.03;;;;;;;13.24;92.31;92905.13;4310856;33;20192;-64
2023/10/20 00:11:04;;;;;;;2.90;2.80;;;;;;;13.25;92.25;92893.34;4304553;33;20213;-64
2023/10/20 00:13:30;;;;;;;3.07;2.97;;;;;;;13.19;92.00;92894.81;4289768;33;20221;-64
2023/10/20 00:15:55;;;;;;;5.03;4.73;;;;;;;13.14;92.40;92892.47;4288925;33;20190;-64
2023/10/20 00:18:21;;;;;;;4.67;4.37;;;;;;;13.09;92.75;92893.59;4302053;33;20201;-64
2023/10/20 00:20:46;;;;;;;3.80;3.57;;;;;;;13.11;92.93;92899.28;4302121;33;20201;-64
2023/10/20 00:23:14;;;;;;;3.77;3.57;;;;;;;13.17;92.76;92902.41;4316205;33;20202;-64
2023/10/20 00:25:39;;;;;;;3.03;2.93;;;;;;;13.09;92.78;92902.31;4294081;33;20285;-64
2023/10/20 00:28:05;;;;;;;4.63;4.33;;;;;;;13.16;92.70;92898.22;4288202;33;20229;-64
2023/10/20 00:30:30;;;;;;;4.30;4.03;;;;;;;13.26;92.13;92895.66;4292926;33;20205;-64
2023/10/20 00:32:56;;;;;;;4.33;4.13;;;;;;;13.17;92.34;92891.75;4303524;33;20190;-64
2023/10/20 00:35:21;;;;;;;5.43;5.07;;;;;;;13.21;92.42;92880.00;4309360;33;21381;-64
2023/10/20 00:37:47;;;;;;;3.70;3.50;;;;;;;13.29;92.31;92878.16;4301796;33;20186;-64
2023/10/20 00:40:12;;;;;;;3.90;3.60;;;;;;;13.31;92.51;92862.56;4301734;33;20202;-64
2023/10/20 00:42:38;;;;;;;4.10;3.90;;;;;;;13.23;92.82;92863.66;4297573;33;20238;-64
2023/10/20 00:45:04;;;;;;;3.73;3.53;;;;;;;13.22;92.86;92852.25;4288263;33;20208;-63
2023/10/20 00:47:31;;;;;;;5.07;4.73;;;;;;;13.26;92.97;92838.97;4290016;33;20204;-64
2023/10/20 00:49:58;;;;;;;4.63;4.33;;;;;;;13.20;93.13;92827.13;4288292;33;20242;-64
2023/10/20 00:52:25;;;;;;;3.60;3.40;;;;;;;13.19;93.26;92826.34;4295857;33;20217;-64
2023/10/20 00:54:51;;;;;;;4.50;4.00;;;;;;;13.28;93.14;92823.38;4300990;33;20182;-64
2023/10/20 00:57:18;;;;;;;4.00;3.80;;;;;;;13.17;93.81;92825.19;4287651;33;20272;-64
2023/10/20 00:59:43;;;;;;;3.47;3.20;;;;;;;13.22;93.54;92814.22;4288279;33;20201;-64
2023/10/20 01:02:09;;;;;;;5.83;5.23;;;;;;;13.23;93.58;92813.06;4299455;33;20183;-64
2023/10/20 01:04:35;;;;;;;3.00;2.90;;;;;;;13.23;93.60;92816.50;4301426;33;20205;-64
2023/10/20 01:07:01;;;;;;;4.00;3.70;;;;;;;13.27;93.53;92806.66;4291752;33;20204;-64
2023/10/20 01:09:27;;;;;;;6.13;5.53;;;;;;;13.21;93.88;92794.03;4301283;33;20182;-64
2023/10/20 01:11:53;;;;;;;4.03;3.73;;;;;;;13.24;93.64;92799.41;4286978;33;20332;-64
2023/10/20 01:14:19;;;;;;;4.20;4.00;;;;;;;13.25;93.69;92802.81;4302679;33;20196;-64
2023/10/20 01:16:45;;;;;;;4.40;4.10;;;;;;;13.32;93.40;92794.84;4295309;33;20209;-64
2023/10/20 01:19:10;;;;;;;4.87;4.57;;;;;;;13.32;93.00;92790.28;4304123;33;20222;-64
2023/10/20 01:21:36;;;;;;;4.97;4.67;;;;;;;13.29;92.92;92795.63;4306262;33;20243;-64
2023/10/20 01:24:04;;;;;;;3.70;3.50;;;;;;;13.20;93.23;92779.19;4289934;33;20216;-64
2023/10/20 01:26:30;;;;;;;15.53;4.27;;;;;;;13.33;92.69;92781.16;4301495;33;20252;-64
2023/10/20 01:28:55;;;;;;;4.80;4.50;;;;;;;13.35;92.29;92772.81;4301198;33;20198;-64
2023/10/20 01:31:22;;;;;;;4.00;3.80;;;;;;;13.42;92.26;92754.22;4287899;33;21133;-64
2023/10/20 01:33:48;;;;;;;4.10;3.90;;;;;;;13.34;92.43;92756.06;4300164;33;20171;-64
2023/10/20 01:36:14;;;;;;;3.73;3.33;;;;;;;13.26;92.90;92745.78;4301346;33;20186;-64
2023/10/20 01:38:39;;;;;;;4.97;4.67;;;;;;;13.22;93.03;92755.63;4293670;33;20170;-64
2023/10/20 01:41:06;;;;;;;4.13;3.83;;;;;;;13.23;93.15;92747.28;4305716;33;20178;-64
2023/10/20 01:43:31;;;;;;;3.77;3.47;;;;;;;13.38;92.67;92737.44;4301763;33;20214;-64
2023/10/20 01:45:56;;;;;;;3.87;3.67;;;;;;;13.21;93.10;92722.16;4285582;33;20204;-64
2023/10/20 01:48:22;;;;;;;3.77;3.57;;;;;;;13.28;92.77;92709.66;4301441;33;20280;-64
2023/10/20 01:50:47;;;;;;;4.60;4.23;;;;;;;13.26;92.68;92705.84;4309572;33;20270;-64
2023/10/20 01:53:12;;;;;;;4.57;4.27;;;;;;;13.19;93.19;92714.56;4294326;33;20194;-64
2023/10/20 01:55:40;;;;;;;3.53;3.37;;;;;;;13.27;92.82;92716.13;4292553;33;20190;-64
2023/10/20 01:58:05;;;;;;;4.53;4.33;;;;;;;13.30;92.61;92709.28;4298736;33;20183;-64
2023/10/20 02:00:31;;;;;;;3.33;3.13;;;;;;;13.28;92.81;92706.22;4286892;33;20205;-64
2023/10/20 02:02:56;;;;;;;4.67;4.37;;;;;;;13.24;92.74;92705.44;4284499;33;20229;-64
2023/10/20 02:05:22;;;;;;;5.33;4.93;;;;;;;13.29;92.28;92707.75;4303665;33;20307;-64
2023/10/20 02:07:48;;;;;;;4.03;3.83;;;;;;;13.18;92.44;92706.94;4295495;33;20196;-65
2023/10/20 02:10:14;;;;;;;4.47;4.23;;;;;;;13.09;92.63;92705.34;4286078;33;20191;-65
2023/10/20 02:12:40;;;;;;;4.83;4.47;;;;;;;12.90;93.25;92697.63;4284573;33;20196;-64
2023/10/20 02:15:07;;;;;;;3.93;3.73;;;;;;;12.96;93.56;92690.84;4287245;33;20217;-63
2023/10/20 02:17:34;;;;;;;4.10;3.90;;;;;;;12.95;93.83;92691.19;4287009;33;20266;-64
2023/10/20 02:19:59;;;;;;;3.80;3.53;;;;;;;13.05;93.34;92675.31;4286406;33;20209;-64
2023/10/20 02:22:25;;;;;;;3.00;2.80;;;;;;;12.96;93.79;92669.53;4300330;33;20194;-64
2023/10/20 02:24:50;;;;;;;7.43;4.00;;;;;;;13.05;93.50;92648.69;4295571;33;20178;-64
2023/10/20 02:27:16;;;;;;;4.87;4.53;;;;;;;13.05;93.53;92651.34;4291256;33;20244;-64
2023/10/20 02:29:42;;;;;;;4.50;4.20;;;;;;;13.13;93.07;92646.03;4286802;33;20197;-64
2023/10/20 02:32:08;;;;;;;3.83;3.63;;;;;;;13.12;93.00;92612.56;4300431;33;20182;-64
2023/10/20 02:34:33;;;;;;;5.20;4.90;;;;;;;12.99;93.57;92606.81;4299937;33;20190;-64
2023/10/20 02:36:59;;;;;;;6.33;4.63;;;;;;;12.90;94.17;92619.69;4302015;33;20233;-64
2023/10/20 02:39:24;;;;;;;4.23;3.93;;;;;;;12.92;94.08;92625.41;4290965;33;20182;-64
2023/10/20 02:41:50;;;;;;;4.37;4.17;;;;;;;12.87;94.34;92601.84;4305546;33;20174;-64
2023/10/20 02:44:15;;;;;;;10.80;5.97;;;;;;;12.86;94.46;92590.44;4289675;33;20205;-64
2023/10/20 02:46:40;;;;;;;4.60;4.30;;;;;;;12.72;95.42;92660.28;4309248;33;20202;-64
2023/10/20 02:49:06;;;;;;;3.63;3.47;;;;;;;12.70;95.79;92646.59;4283662;33;20277;-64
2023/10/20 02:51:31;;;;;;;5.57;5.17;;;;;;;12.67;95.71;92574.78;4289825;33;20228;-64
2023/10/20 02:53:56;;;;;;;4.03;3.83;;;;;;;12.59;96.61;92581.19;4300395;33;20257;-64
2023/10/20 02:56:23;;;;;;;4.40;4.17;;;;;;;12.60;96.75;92580.06;4297171;33;20279;-64
2023/10/20 02:58:48;;;;;;;5.00;4.67;;;;;;;12.68;96.63;92589.59;4300570;33;20178;-64
2023/10/20 03:01:15;;;;;;;5.43;5.00;;;;;;;12.68;96.57;92592.25;4288967;33;20182;-64
2023/10/20 03:03:41;;;;;;;3.20;2.93;;;;;;;12.68;97.13;92578.94;4293779;33;20182;-64
2023/10/20 03:06:09;;;;;;;5.50;4.57;;;;;;;12.70;96.78;92576.69;4313579;33;20268;-64
2023/10/20 03:08:38;;;;;;;4.90;4.43;;;;;;;12.81;96.38;92560.78;4315402;33;20194;-64
2023/10/20 03:11:08;;;;;;;5.27;4.97;;;;;;;12.87;95.80;92554.72;4294729;33;20232;-63
2023/10/20 03:13:33;;;;;;;4.47;4.27;;;;;;;12.86;95.61;92536.47;4293778;33;20202;-63
2023/10/20 03:15:59;;;;;;;4.37;4.07;;;;;;;12.90;95.54;92527.34;4308773;33;20250;-64
2023/10/20 03:18:24;;;;;;;4.40;4.10;;;;;;;12.84;95.65;92522.78;4289581;33;20254;-64
2023/10/20 03:20:53;;;;;;;5.07;4.63;;;;;;;12.80;95.75;92536.06;4294983;33;20194;-64
2023/10/20 03:23:20;;;;;;;4.17;3.97;;;;;;;12.87;95.39;92538.00;4301931;33;20178;-64
2023/10/20 03:25:46;;;;;;;5.53;5.23;;;;;;;12.79;95.49;92534.53;4310096;33;20178;-65
2023/10/20 03:28:12;;;;;;;5.37;5.00;;;;;;;12.82;95.72;92541.00;4293608;33;20190;-64
2023/10/20 03:30:38;;;;;;;6.83;5.80;;;;;;;12.78;95.57;92535.69;4295017;33;20181;-64
2023/10/20 03:33:13;;;;;;;5.03;4.73;;;;;;;12.78;95.62;92525.03;4294564;33;20196;-64
2023/10/20 03:35:40;;;;;;;5.60;5.30;;;;;;;12.81;95.32;92526.94;4280452;33;20178;-64
2023/10/20 03:38:06;;;;;;;4.37;4.17;;;;;;;12.71;95.76;92525.00;4303079;33;20205;-64
2023/10/20 03:40:36;;;;;;;4.57;4.27;;;;;;;12.77;95.63;92522.75;4301296;33;20241;-65
2023/10/20 03:43:02;;;;;;;3.80;3.60;;;;;;;12.70;95.80;92513.59;4289871;33;20190;-64
2023/10/20 03:45:28;;;;;;;4.27;4.07;;;;;;;12.77;95.64;92512.09;4301442;33;20182;-64
2023/10/20 03:47:53;;;;;;;5.03;4.73;;;;;;;12.74;95.37;92519.69;4316342;33;20224;-65
2023/10/20 03:50:18;;;;;;;4.80;4.50;;;;;;;12.64;95.85;92511.69;4305957;33;20186;-64
2023/10/20 03:52:47;;;;;;;6.43;5.83;;;;;;;12.77;95.69;92510.22;4307155;33;20205;-64
2023/10/20 03:55:16;;;;;;;4.80;4.50;;;;;;;12.71;95.50;92512.47;4317720;33;20236;-64
2023/10/20 03:57:42;;;;;;;5.90;5.50;;;;;;;12.79;95.31;92499.19;4291928;33;20216;-64
2023/10/20 04:00:21;;;;;;;6.00;5.67;;;;;;;12.77;95.30;92491.59;4293684;33;20216;-64
2023/10/20 04:02:47;;;;;;;4.47;4.17;;;;;;;12.60;95.86;92487.75;4292483;33;20251;-64
2023/10/20 04:05:14;;;;;;;4.63;4.43;;;;;;;12.66;95.99;92472.19;4289184;33;20182;-64
2023/10/20 04:07:42;;;;;;;5.70;5.40;;;;;;;12.70;95.50;92455.09;4295205;33;20183;-64
2023/10/20 04:10:08;;;;;;;5.27;4.97;;;;;;;12.69;95.13;92464.19;4292694;33;20186;-64
2023/10/20 04:12:33;;;;;;;5.33;4.97;;;;;;;12.55;95.98;92448.22;4303094;33;20201;-64
2023/10/20 04:14:59;;;;;;;7.17;6.50;;;;;;;12.50;96.09;92424.63;4302119;33;20210;-64
2023/10/20 04:17:24;;;;;;;5.73;5.40;;;;;;;12.36;96.62;92428.03;4289232;33;20187;-64
2023/10/20 04:19:49;;;;;;;8.30;7.70;;;;;;;12.37;96.54;92434.88;4288208;33;20185;-64
2023/10/20 04:22:16;;;;;;;6.80;6.40;;;;;;;12.34;96.84;92424.97;4284151;33;20209;-64
2023/10/20 04:24:42;;;;;;;6.93;6.43;;;;;;;12.34;96.79;92417.00;4287972;33;20186;-64
2023/10/20 04:27:21;;;;;;;5.63;5.20;;;;;;;12.28;96.91;92417.75;4289044;33;20261;-64
2023/10/20 04:43:37;;;;;;;7.57;7.00;;;;;;;12.53;96.21;92402.63;4293099;33;20188;-64
2023/10/20 04:49:17;;;;;;;6.87;6.23;;;;;;;12.30;96.48;92379.00;4271329;33;20190;-64
2023/10/20 04:52:05;;;;;;;7.60;7.17;;;;;;;12.18;97.16;92360.00;4293478;33;20174;-64
2023/10/20 04:54:50;;;;;;;6.70;6.13;;;;;;;12.21;96.98;92354.72;4310096;33;20182;-65
2023/10/20 04:57:40;;;;;;;7.27;6.67;;;;;;;12.17;97.45;92342.53;4302613;33;20178;-64
2023/10/20 05:07:52;;;;;;;7.20;6.53;;;;;;;12.42;96.93;92305.38;4304016;33;20186;-64
2023/10/20 05:10:21;;;;;;;6.97;6.47;;;;;;;12.35;96.63;92296.25;4307491;33;20253;-64
2023/10/20 05:12:46;;;;;;;7.40;6.87;;;;;;;12.44;96.23;92295.13;4315660;33;20263;-64
2023/10/20 05:15:12;;;;;;;7.90;7.33;;;;;;;12.37;96.76;92287.91;4295255;33;20178;-64
2023/10/20 05:17:37;;;;;;;6.70;6.27;;;;;;;12.35;96.85;92269.66;4302115;33;20278;-64
2023/10/20 05:20:06;;;;;;;6.60;6.17;;;;;;;12.37;96.81;92266.63;4288645;33;20190;-64
2023/10/20 05:22:34;;;;;;;6.00;5.60;;;;;;;12.28;97.11;92268.91;4292597;33;20218;-64
2023/10/20 05:25:00;;;;;;;7.60;6.90;;;;;;;12.39;97.01;92249.16;4287972;33;20202;-64
2023/10/20 05:27:25;;;;;;;10.57;6.90;;;;;;;12.31;97.21;92257.50;4296492;33;20190;-65
2023/10/20 05:29:51;;;;;;;6.40;6.00;;;;;;;12.30;97.46;92269.28;4295949;33;20205;-64
2023/10/20 05:32:17;;;;;;;10.43;7.10;;;;;;;12.32;97.43;92265.09;4295042;33;20194;-64
2023/10/20 05:34:43;;;;;;;6.20;5.87;;;;;;;12.41;97.21;92256.00;4300856;33;20182;-64
2023/10/20 05:37:08;;;;;;;4.70;4.50;;;;;;;12.39;96.89;92249.16;4295372;33;20216;-64
2023/10/20 05:39:34;;;;;;;6.33;6.00;;;;;;;12.39;97.12;92225.25;4292684;33;20241;-64
2023/10/20 05:42:01;;;;;;;5.50;5.20;;;;;;;12.50;96.75;92227.88;4291562;33;20250;-64
2023/10/20 05:44:33;;;;;;;7.50;6.80;;;;;;;12.46;96.68;92234.37;4286010;33;20249;-64
2023/10/20 05:46:58;;;;;;;5.70;5.30;;;;;;;12.42;96.92;92234.34;4300257;33;20298;-64
2023/10/20 05:49:24;;;;;;;8.20;7.17;;;;;;;12.42;97.03;92222.97;4285364;33;20179;-64
2023/10/20 05:51:51;;;;;;;7.13;6.60;;;;;;;12.38;97.60;92231.69;4288207;33;20244;-64
2023/10/20 05:54:17;;;;;;;7.37;6.73;;;;;;;12.52;96.94;92241.56;4287893;33;20204;-64
2023/10/20 05:56:42;;;;;;;8.93;8.13;;;;;;;12.48;96.74;92237.38;4304672;33;20202;-64
2023/10/20 05:59:08;;;;;;;6.73;6.13;;;;;;;12.53;96.34;92234.34;4287379;33;20186;-64
2023/10/20 06:01:33;;;;;;;7.40;6.90;;;;;;;12.31;97.26;92239.66;4301727;33;20246;-64
2023/10/20 06:03:59;;;;;;;8.50;7.80;;;;;;;12.32;97.49;92246.50;4289982;33;20186;-64
2023/10/20 06:06:24;;;;;;;6.70;6.17;;;;;;;12.46;96.84;92229.03;4288950;33;20182;-64
2023/10/20 06:08:49;;;;;;;7.47;6.93;;;;;;;12.50;96.62;92229.78;4299948;33;20178;-64
2023/10/20 06:11:15;;;;;;;9.77;9.07;;;;;;;12.35;96.84;92221.81;4311975;33;20187;-65
2023/10/20 06:13:40;;;;;;;8.33;7.60;;;;;;;12.29;97.38;92212.69;4301160;33;20224;-64
2023/10/20 06:16:10;;;;;;;7.13;6.60;;;;;;;12.34;96.92;92204.34;4287807;33;20197;-64
2023/10/20 06:18:39;;;;;;;9.00;7.77;;;;;;;12.32;97.28;92203.97;4287288;33;20197;-64
2023/10/20 06:21:06;;;;;;;7.30;6.80;;;;;;;12.32;97.16;92209.28;4287812;33;20204;-63
2023/10/20 06:23:32;;;;;;;8.50;7.83;;;;;;;12.48;96.34;92198.25;4313651;33;20186;-64
2023/10/20 06:25:58;;;;;;;8.07;4.30;;;;;;;12.40;96.85;92196.75;4301558;33;20206;-65
2023/10/20 06:28:24;;;;;;;6.40;5.90;;;;;;;13.78;100.00;92184.91;4286311;33;20186;-65
2023/10/20 06:30:50;;;;;;;7.77;7.17;;;;;;;13.44;100.00;92181.28;4300094;33;20213;-65
2023/10/20 06:33:16;;;;;;;6.37;5.87;;;;;;;14.00;100.00;92180.94;4288990;33;20186;-65
2023/10/20 06:35:53;;;;;;;7.40;6.90;;;;;;;14.59;97.34;92191.53;4292194;33;20197;-65
2023/10/20 06:38:29;;;;;;;8.37;7.77;;;;;;;15.17;90.61;92181.06;4287851;33;20178;-65
2023/10/20 06:40:55;;;;;;;6.97;6.47;;;;;;;15.54;86.51;92164.19;4286647;33;20189;-65
2023/10/20 06:43:21;;;;;;;6.97;6.47;;;;;;;15.78;84.39;92173.84;4299678;33;20212;-65
2023/10/20 06:45:55;;;;;;;6.90;6.33;;;;;;;15.85;83.00;92159.59;4294642;33;20261;-65
2023/10/20 06:48:23;;;;;;;5.80;5.50;;;;;;;15.78;82.50;92139.84;4287379;33;20186;-65
2023/10/20 06:50:48;;;;;;;6.83;6.13;;;;;;;15.92;81.97;92128.16;4287702;33;20237;-65
2023/10/20 06:53:14;;;;;;;8.30;5.90;;;;;;;16.03;81.41;92130.66;4287594;33;20186;-64
2023/10/20 06:55:43;;;;;;;4.73;4.47;;;;;;;16.04;80.80;92116.91;4287586;33;20198;-64
2023/10/20 06:58:11;;;;;;;6.37;5.87;;;;;;;16.12;82.60;92118.31;4306062;33;20177;-65
2023/10/20 07:00:36;;;;;;;6.50;6.10;;;;;;;16.01;82.51;92108.91;4310442;33;20196;-64
2023/10/20 07:03:02;;;;;;;7.53;7.03;;;;;;;15.40;81.35;92091.06;4306149;33;20193;-66
2023/10/20 07:05:28;;;;;;;6.97;6.43;;;;;;;14.74;83.76;92104.13;4308899;33;20209;-65
2023/10/20 07:07:54;;;;;;;8.63;7.67;;;;;;;14.58;84.53;92087.88;4308219;33;20213;-65
2023/10/20 07:10:22;;;;;;;6.40;6.00;;;;;;;14.18;86.14;92079.50;4306541;33;20226;-66
2023/10/20 07:12:48;;;;;;;6.50;6.10;;;;;;;14.01;87.25;92067.84;4283708;33;20178;-65
2023/10/20 07:15:15;;;;;;;7.03;6.57;;;;;;;13.85;88.25;92077.50;4285164;33;20178;-64
2023/10/20 07:17:41;;;;;;;9.30;5.43;;;;;;;13.85;88.85;92066.84;4286796;33;20191;-65
2023/10/20 07:20:07;;;;;;;5.23;4.90;;;;;;;13.84;88.96;92071.44;4284088;33;20299;-65
2023/10/20 07:22:32;;;;;;;7.13;6.67;;;;;;;13.72;89.69;92074.56;4299448;33;20265;-65
2023/10/20 07:24:58;;;;;;;6.23;5.73;;;;;;;13.69;89.94;92046.81;4297902;33;20183;-64
2023/10/20 07:27:23;;;;;;;6.93;6.33;;;;;;;13.85;89.62;92058.87;4280862;33;20238;-65
2023/10/20 07:29:49;;;;;;;10.10;6.10;;;;;;;13.66;90.39;92044.94;4291613;33;20183;-65
2023/10/20 07:32:14;;;;;;;6.83;6.37;;;;;;;13.68;90.19;92039.97;4288396;33;20179;-65
2023/10/20 07:34:39;;;;;;;7.70;6.70;;;;;;;13.81;90.04;92037.56;4286278;33;20178;-65
2023/10/20 07:37:06;;;;;;;7.67;7.03;;;;;;;14.00;89.15;92041.59;4285299;33;20197;-66
2023/10/20 07:39:34;;;;;;;7.60;7.07;;;;;;;13.83;89.25;92032.62;4280860;33;20200;-64
2023/10/20 07:42:00;;;;;;;6.43;5.93;;;;;;;13.84;89.49;92033.38;4298712;33;20189;-64
2023/10/20 07:44:25;;;;;;;7.13;6.53;;;;;;;13.82;89.41;92035.66;4283696;33;20209;-64
2023/10/20 07:46:50;;;;;;;6.87;6.50;;;;;;;13.69;89.86;92027.41;4291867;33;20190;-65
2023/10/20 07:49:16;;;;;;;5.80;5.30;;;;;;;13.72;90.23;92027.34;4288361;33;20353;-64
2023/10/20 07:51:41;;;;;;;6.20;5.43;;;;;;;13.71;90.27;92036.53;4287672;33;20201;-65
2023/10/20 07:54:08;;;;;;;6.80;6.37;;;;;;;13.59;90.80;92022.91;4301571;33;20229;-65
2023/10/20 07:56:34;;;;;;;6.00;5.60;;;;;;;13.60;90.87;92024.44;4294070;33;20244;-65
2023/10/20 07:59:00;;;;;;;5.73;5.33;;;;;;;13.64;90.71;92020.59;4304332;33;20182;-64
2023/10/20 08:01:25;;;;;;;6.63;6.23;;;;;;;13.69;91.40;92024.75;4309549;33;20201;-65
2023/10/20 08:03:52;;;;;;;27.50;7.17;;;;;;;13.83;90.59;92027.28;4297283;33;20213;-66
2023/10/20 08:06:20;;;;;;;6.77;6.20;;;;;;;14.00;89.90;92021.03;4292533;33;20196;-65
2023/10/20 08:08:46;;;;;;;6.17;5.80;;;;;;;13.98;90.12;92031.31;4311108;33;20186;-65
2023/10/20 08:11:13;;;;;;;7.10;6.60;;;;;;;14.05;89.45;92033.16;4291377;33;20233;-64
2023/10/20 08:13:38;;;;;;;5.03;4.73;;;;;;;14.13;89.14;92034.63;4291963;33;20232;-64
2023/10/20 08:16:06;;;;;;;6.33;5.90;;;;;;;14.27;88.46;92044.37;4300391;33;20194;-65
2023/10/20 08:18:35;;;;;;;6.87;6.23;;;;;;;14.14;89.32;92041.44;4298954;33;20233;-65
2023/10/20 08:21:09;;;;;;;7.17;6.73;;;;;;;14.20;89.45;92058.53;4290436;33;20265;-65
2023/10/20 08:23:37;;;;;;;9.43;5.83;;;;;;;14.33;89.20;92048.91;4290172;33;20206;-65
2023/10/20 08:26:06;;;;;;;5.97;5.57;;;;;;;14.50;88.50;92049.88;4290578;33;20197;-65
2023/10/20 08:28:31;;;;;;;4.83;4.53;;;;;;;14.56;88.02;92042.19;4295374;33;20195;-65
2023/10/20 08:31:07;;;;;;;5.13;4.73;;;;;;;14.77;87.36;92049.94;4304497;33;20195;-63
2023/10/20 08:33:33;;;;;;;4.40;4.20;;;;;;;14.83;87.32;92052.94;4308005;33;20249;-64
2023/10/20 08:36:08;;;;;;;5.80;5.50;;;;;;;14.72;87.74;92064.50;4311885;33;20201;-65
2023/10/20 08:38:33;;;;;;;5.60;5.20;;;;;;;14.77;88.88;92076.63;4303406;33;20190;-64
2023/10/20 08:40:59;;;;;;;4.83;4.43;;;;;;;14.85;88.15;92077.31;4290016;33;20224;-64
2023/10/20 08:43:25;;;;;;;4.03;3.83;;;;;;;14.97;87.63;92085.53;4288729;33;20209;-64
2023/10/20 08:45:53;;;;;;;5.23;4.83;;;;;;;15.00;87.65;92076.72;4300387;33;20337;-64
2023/10/20 08:48:18;;;;;;;3.90;3.67;;;;;;;15.12;87.94;92091.47;4303351;33;20245;-65
2023/10/20 08:50:48;;;;;;;5.83;5.23;;;;;;;15.16;88.58;92089.50;4299871;33;20204;-64
2023/10/20 08:53:15;;;;;;;4.70;3.63;;;;;;;15.27;88.19;92100.81;4294692;33;20265;-63
2023/10/20 08:55:41;;;;;;;3.30;3.20;;;;;;;15.18;87.95;92097.09;4318420;33;20175;-65
2023/10/20 08:58:06;;;;;;;3.43;3.23;;;;;;;15.25;87.23;92089.00;4303204;33;20249;-64
2023/10/20 09:00:32;;;;;;;6.67;4.93;;;;;;;15.38;87.59;92098.00;4289415;33;20245;-64
2023/10/20 09:02:58;;;;;;;4.23;3.80;;;;;;;15.39;87.60;92094.16;4305253;33;20194;-65
2023/10/20 09:05:24;;;;;;;3.27;3.03;;;;;;;15.37;87.64;92078.56;4310026;33;20200;-65
2023/10/20 09:07:54;;;;;;;2.50;2.40;;;;;;;15.42;87.49;92059.37;4305584;33;20186;-64
2023/10/20 09:10:20;;;;;;;1.90;1.80;;;;;;;15.58;86.11;92066.06;4302769;33;20192;-65
2023/10/20 09:12:45;;;;;;;1.80;1.70;;;;;;;15.61;86.19;92065.25;4289903;33;20195;-65
2023/10/20 09:15:11;;;;;;;2.67;1.93;;;;;;;15.69;85.76;92058.63;4307155;33;20221;-65
2023/10/20 09:17:37;;;;;;;2.80;1.70;;;;;;;15.78;85.27;92066.91;4316431;33;20182;-65
2023/10/20 09:20:14;;;;;;;2.03;1.90;;;;;;;15.84;84.91;92056.50;4304776;33;20222;-64
2023/10/20 09:22:39;;;;;;;0.60;0.60;;;;;;;15.96;84.56;92061.28;4288757;33;20224;-65
2023/10/20 09:25:10;;;;;;;0.87;0.87;;;;;;;15.97;84.37;92050.19;4289385;33;20195;-65
2023/10/20 09:27:39;;;;;;;1.50;1.13;;;;;;;15.98;84.71;92038.31;4302933;33;20186;-64
2023/10/20 09:30:08;;;;;;;1.40;1.30;;;;;;;16.14;83.82;92029.63;4304329;33;20182;-65
2023/10/20 09:32:35;;;;;;;1.53;1.47;;;;;;;16.19;83.63;92015.81;4309760;33;20190;-64
2023/10/20 09:35:03;;;;;;;0.93;0.93;;;;;;;16.23;83.44;92024.50;4302518;33;20194;-64
2023/10/20 09:37:29;;;;;;;0.50;0.50;;;;;;;16.21;83.58;92024.16;4305977;33;20291;-65
2023/10/20 09:40:09;;;;;;;2.63;2.43;;;;;;;16.26;82.62;92028.28;4299331;33;20198;-66
2023/10/20 09:43:13;;;;;;;2.23;2.13;;;;;;;16.48;84.03;92040.09;4280253;33;20194;-65
2023/10/20 09:45:43;;;;;;;1.90;1.80;;;;;;;17.10;83.46;92028.56;4298880;33;20233;-65
2023/10/20 09:48:18;;;;;;;2.90;2.60;;;;;;;17.60;82.97;92032.84;4288822;33;20272;-64
2023/10/20 09:50:47;;;;;;;2.07;1.13;;;;;;;17.88;80.90;92023.38;4288371;33;20178;-66
2023/10/20 09:53:16;;;;;;;1.23;1.23;;;;;;;18.08;79.14;92007.94;4289255;33;20241;-65
2023/10/20 09:55:45;;;;;;;1.73;1.63;;;;;;;18.28;78.12;92029.31;4297246;33;20171;-65
2023/10/20 09:58:11;;;;;;;0.93;0.93;;;;;;;18.46;77.01;92029.59;4306029;33;20178;-65
2023/10/20 10:00:40;;;;;;;1.50;1.50;;;;;;;18.60;75.99;92030.44;4306510;33;20177;-65
2023/10/20 10:03:06;;;;;;;1.00;1.00;;;;;;;18.42;75.08;92033.56;4301838;33;20201;-64
2023/10/20 10:05:31;;;;;;;1.10;1.10;;;;;;;18.21;75.60;92026.81;4301533;33;20182;-64
2023/10/20 10:08:09;;;;;;;1.00;1.00;;;;;;;18.05;75.95;92043.69;4321356;27;20151;-58
2023/10/20 10:10:40;;;;;;;0.80;0.80;;;;;;;17.90;76.18;92050.53;4252418;33;20254;-60
2023/10/20 10:13:05;;;;;;;1.03;1.03;;;;;;;17.78;77.24;92049.31;4251446;33;20254;-60
2023/10/20 10:15:58;;;;;;;1.17;1.17;;;;;;;17.68;77.78;92050.28;4288164;33;20197;-62
2023/10/20 10:18:32;;;;;;;0.60;0.47;;;;;;;17.59;78.21;92052.78;4298836;33;20076;-62
2023/10/20 10:21:05;;;;;;;1.40;1.00;;;;;;;17.48;79.03;92034.25;4295341;33;20188;-62
2023/10/20 10:23:34;;;;;;;0.50;0.50;;;;;;;17.49;79.26;92026.94;4316067;33;20237;-62
2023/10/20 10:26:13;;;;;;;5.70;1.03;;;;;;;17.44;79.31;92030.16;4286434;33;20233;-61
2023/10/20 10:28:50;;;;;;;0.87;0.87;;;;;;;17.56;78.74;92044.81;4294417;33;20244;-62
2023/10/20 10:31:16;;;;;;;1.37;0.93;;;;;;;17.55;78.42;92035.25;4294263;33;20189;-61
2023/10/20 10:33:43;;;;;;;0.67;0.67;;;;;;;17.56;78.48;92037.53;4298748;33;20276;-61
2023/10/20 10:36:10;;;;;;;1.13;0.73;;;;;;;17.60;78.07;92026.72;4316146;33;20182;-62
2023/10/20 10:38:43;;;;;;;0.63;0.63;;;;;;;17.63;78.05;92042.72;4272030;33;20194;-61
2023/10/20 10:41:10;;;;;;;0.70;0.70;;;;;;;17.64;77.97;92032.75;4312240;32;20213;-62
2023/10/20 10:43:36;;;;;;;0.30;0.30;;;;;;;17.72;77.29;92026.84;4256122;33;20187;-62
2023/10/20 10:46:02;;;;;;;0.73;0.73;;;;;;;17.77;77.27;92031.69;4279766;33;20209;-62
2023/10/20 10:48:29;;;;;;;6.80;1.47;;;;;;;17.87;76.66;92038.72;4311004;33;20250;-62
2023/10/20 10:50:56;;;;;;;12.17;1.10;;;;;;;17.99;76.44;92031.19;4313746;33;20193;-63
2023/10/20 10:53:21;;;;;;;0.67;0.67;;;;;;;18.06;76.73;92039.06;4286619;33;20279;-61
2023/10/20 10:55:49;;;;;;;0.67;0.67;;;;;;;18.04;76.85;92044.84;4295589;33;20201;-62
2023/10/20 10:58:15;;;;;;;0.97;0.97;;;;;;;18.10;76.25;92058.50;4313716;33;20261;-62
2023/10/20 11:00:43;;;;;;;0.60;0.60;;;;;;;18.14;76.72;92065.28;4314871;33;20208;-63
2023/10/20 11:03:09;;;;;;;0.97;0.97;;;;;;;18.18;76.43;92124.25;4304073;33;20202;-62
2023/10/20 11:05:35;;;;;;;1.10;1.03;;;;;;;18.54;75.50;92164.41;4298657;33;20203;-62
2023/10/20 11:08:02;;;;;;;1.67;0.87;;;;;;;18.69;76.26;92167.53;4306091;33;20212;-62
2023/10/20 11:10:34;;;;;;;0.73;0.63;;;;;;;18.68;76.94;92161.41;4317287;33;20234;-62
2023/10/20 11:13:06;;;;;;;0.33;0.33;;;;;;;18.91;74.78;92176.56;4282216;33;20209;-62
2023/10/20 11:15:33;;;;;;;0.60;0.60;;;;;;;19.02;74.90;92185.09;4291647;33;20186;-62
2023/10/20 11:18:04;;;;;;;1.27;1.27;;;;;;;19.06;73.20;92191.13;4299645;33;20202;-62
2023/10/20 11:20:33;;;;;;;0.80;0.80;;;;;;;19.09;73.28;92197.59;4280250;33;20276;-62
2023/10/20 11:23:04;;;;;;;0.47;0.47;;;;;;;19.09;73.02;92201.03;4307419;33;20305;-61
2023/10/20 11:25:30;;;;;;;0.40;0.40;;;;;;;19.08;71.95;92198.78;4305262;33;20209;-62
2023/10/20 11:27:58;;;;;;;0.50;0.50;;;;;;;19.08;71.92;92198.78;4266465;33;20195;-61
2023/10/20 11:30:45;;;;;;;2.20;1.13;;;;;;;19.04;71.87;92198.88;4309929;33;20203;-61
2023/10/20 11:33:19;;;;;;;0.60;0.60;;;;;;;19.13;71.29;92206.31;4306409;33;20272;-61
2023/10/20 11:35:45;;;;;;;0.20;0.20;;;;;;;19.16;70.48;92216.22;4318417;33;20210;-61
2023/10/20 11:38:15;;;;;;;0.40;0.40;;;;;;;19.30;69.54;92217.78;4311116;33;20212;-61
2023/10/20 11:40:47;;;;;;;0.30;0.30;;;;;;;19.39;68.98;92234.06;4295859;33;20204;-61
2023/10/20 11:43:20;;;;;;;0.50;0.50;;;;;;;19.42;69.29;92222.44;4307705;33;20232;-61
2023/10/20 11:45:46;;;;;;;0.60;0.60;;;;;;;19.49;69.07;92223.03;4300478;33;20190;-61
2023/10/20 11:48:28;;;;;;;0.20;0.20;;;;;;;19.29;69.88;92230.47;4311116;33;20272;-61
2023/10/20 11:50:55;;;;;;;0.40;0.40;;;;;;;19.27;70.06;92224.78;4321665;33;20266;-61
2023/10/20 11:53:24;;;;;;;2.63;0.60;;;;;;;19.28;70.65;92217.47;4313993;33;20289;-61
2023/10/20 11:55:49;;;;;;;0.40;0.40;;;;;;;19.25;69.89;92229.81;4293612;33;20273;-61
2023/10/20 11:58:18;;;;;;;1.07;1.03;;;;;;;19.27;70.75;92238.22;4266087;33;20198;-61
2023/10/20 12:00:45;;;;;;;0.97;0.47;;;;;;;19.21;71.22;92256.03;4300239;33;20194;-61